createdAt,value
2023-05-08T00:02:16.995Z,102007.88
2023-05-08T00:04:45.165Z,102017.91
2023-05-08T00:07:13.140Z,102014.50
2023-05-08T00:09:41.058Z,102018.19
2023-05-08T00:12:08.931Z,102005.78
2023-05-08T00:14:38.246Z,102009.47
2023-05-08T00:17:06.289Z,102009.47
2023-05-08T00:19:34.443Z,102002.44
2023-05-08T00:22:02.375Z,102004.13
2023-05-08T00:24:30.475Z,101989.72
2023-05-08T00:26:58.337Z,101998.78
2023-05-08T00:29:26.347Z,101984.69
2023-05-08T00:31:55.707Z,101981.31
2023-05-08T00:34:23.773Z,101973.13
2023-05-08T00:36:51.675Z,101981.03
2023-05-08T00:39:19.823Z,101977.66
2023-05-08T00:41:47.805Z,101972.28
2023-05-08T00:44:15.850Z,101977.66
2023-05-08T00:46:43.913Z,101965.63
2023-05-08T00:49:14.593Z,101975.34
2023-05-08T00:51:43.365Z,101959.81
2023-05-08T00:54:11.280Z,101954.47
2023-05-08T00:56:39.299Z,101955.31
2023-05-08T00:59:09.635Z,101951.09
2023-05-08T01:01:38.432Z,101951.94
2023-05-08T01:04:06.667Z,101957.44
2023-05-08T01:06:36.925Z,101959.59
2023-05-08T01:09:05.011Z,101955.25
2023-05-08T01:11:35.173Z,101947.34
2023-05-08T01:14:09.101Z,101955.25
2023-05-08T01:16:40.190Z,101945.53
2023-05-08T01:19:19.109Z,101944.38
2023-05-08T01:21:51.618Z,101947.72
2023-05-08T01:24:51.758Z,101954.63
2023-05-08T01:27:40.989Z,101946.28
2023-05-08T01:30:38.954Z,101949.47
2023-05-08T01:33:10.543Z,101948.63
2023-05-08T01:35:43.097Z,101955.00
2023-05-08T01:38:12.695Z,101948.63
2023-05-08T01:40:44.966Z,101946.28
2023-05-08T01:43:16.660Z,101949.63
2023-05-08T01:45:46.817Z,101946.28
2023-05-08T01:48:19.021Z,101942.91
2023-05-08T01:50:48.190Z,101942.91
2023-05-08T01:53:22.445Z,101937.56
2023-05-08T01:55:52.104Z,101933.19
2023-05-08T01:58:20.625Z,101934.50
2023-05-08T02:00:48.585Z,101936.78
2023-05-08T02:03:17.940Z,101933.44
2023-05-08T02:05:45.978Z,101936.56
2023-05-08T02:08:15.237Z,101942.25
2023-05-08T02:10:43.559Z,101934.38
2023-05-08T02:13:11.565Z,101927.03
2023-05-08T02:15:39.970Z,101929.69
2023-05-08T02:18:09.008Z,101923.66
2023-05-08T02:20:38.517Z,101927.28
2023-05-08T02:23:06.492Z,101926.34
2023-05-08T02:25:34.502Z,101926.59
2023-05-08T02:28:02.507Z,101921.72
2023-05-08T02:30:30.389Z,101919.19
2023-05-08T02:33:00.400Z,101917.81
2023-05-08T02:35:28.840Z,101913.59
2023-05-08T02:37:58.312Z,101923.94
2023-05-08T02:40:27.530Z,101925.22
2023-05-08T02:42:55.726Z,101924.38
2023-05-08T02:45:24.578Z,101919.84
2023-05-08T02:47:55.564Z,101919.19
2023-05-08T02:50:25.680Z,101909.47
2023-05-08T02:52:54.621Z,101913.97
2023-05-08T02:55:34.315Z,101902.59
2023-05-08T02:58:07.368Z,101901.88
2023-05-08T03:00:38.928Z,101900.22
2023-05-08T03:03:10.164Z,101892.34
2023-05-08T03:05:38.576Z,101889.81
2023-05-08T03:08:08.672Z,101901.38
2023-05-08T03:10:38.651Z,101887.44
2023-05-08T03:13:09.187Z,101894.78
2023-05-08T03:15:38.785Z,101890.44
2023-05-08T03:18:09.024Z,101885.38
2023-05-08T03:20:39.093Z,101881.19
2023-05-08T03:23:07.446Z,101887.34
2023-05-08T03:25:35.478Z,101885.50
2023-05-08T03:28:05.476Z,101892.69
2023-05-08T03:30:33.819Z,101882.00
2023-05-08T03:33:07.959Z,101889.88
2023-05-08T03:35:36.670Z,101883.84
2023-05-08T03:38:06.754Z,101887.19
2023-05-08T03:40:38.686Z,101873.97
2023-05-08T03:43:08.628Z,101878.66
2023-05-08T03:45:37.618Z,101871.63
2023-05-08T03:48:06.260Z,101868.56
2023-05-08T03:50:36.253Z,101872.22
2023-05-08T03:53:05.237Z,101867.72
2023-05-08T03:55:34.009Z,101866.88
2023-05-08T03:58:09.674Z,101866.19
2023-05-08T04:00:43.507Z,101855.19
2023-05-08T04:03:22.873Z,101859.00
2023-05-08T04:05:53.330Z,101852.81
2023-05-08T04:08:22.740Z,101852.81
2023-05-08T04:10:52.173Z,101854.50
2023-05-08T04:13:24.042Z,101853.78
2023-05-08T04:15:56.422Z,101840.44
2023-05-08T04:18:29.275Z,101842.13
2023-05-08T04:20:59.680Z,101843.81
2023-05-08T04:23:27.744Z,101852.81
2023-05-08T04:25:56.662Z,101846.75
2023-05-08T04:28:26.400Z,101860.13
2023-05-08T04:30:55.004Z,101853.56
2023-05-08T04:33:23.552Z,101852.03
2023-05-08T04:35:52.545Z,101850.38
2023-05-08T04:38:20.474Z,101851.72
2023-05-08T04:40:48.772Z,101854.25
2023-05-08T04:43:16.718Z,101849.75
2023-05-08T04:45:46.210Z,101852.56
2023-05-08T04:48:14.766Z,101851.03
2023-05-08T04:50:42.681Z,101847.00
2023-05-08T04:53:10.744Z,101846.63
2023-05-08T04:55:38.632Z,101849.56
2023-05-08T04:58:06.628Z,101844.84
2023-05-08T05:00:35.389Z,101846.28
2023-05-08T05:03:05.365Z,101845.13
2023-05-08T05:05:33.575Z,101849.34
2023-05-08T05:08:01.549Z,101848.50
2023-05-08T05:10:29.541Z,101850.47
2023-05-08T05:12:57.570Z,101849.34
2023-05-08T05:15:26.176Z,101846.50
2023-05-08T05:17:54.344Z,101849.56
2023-05-08T05:20:23.815Z,101850.94
2023-05-08T05:22:51.854Z,101852.34
2023-05-08T05:25:19.967Z,101852.03
2023-05-08T05:27:47.936Z,101855.84
2023-05-08T05:30:16.435Z,101844.31
2023-05-08T05:32:45.041Z,101857.69
2023-05-08T05:35:13.515Z,101862.72
2023-05-08T05:37:43.393Z,101859.06
2023-05-08T05:40:13.297Z,101861.72
2023-05-08T05:42:42.000Z,101858.06
2023-05-08T05:45:11.517Z,101864.13
2023-05-08T05:47:40.290Z,101863.28
2023-05-08T05:50:08.778Z,101860.44
2023-05-08T05:52:37.047Z,101861.44
2023-05-08T05:55:07.169Z,101857.69
2023-05-08T05:57:35.346Z,101860.56
2023-05-08T06:00:03.707Z,101855.53
2023-05-08T06:02:42.832Z,101858.91
2023-05-08T06:05:14.403Z,101866.59
2023-05-08T06:07:42.656Z,101857.59
2023-05-08T06:10:12.296Z,101855.44
2023-05-08T06:12:40.621Z,101862.06
2023-05-08T06:15:09.973Z,101863.56
2023-05-08T06:17:38.482Z,101854.41
2023-05-08T06:20:09.918Z,101860.13
2023-05-08T06:22:39.392Z,101864.06
2023-05-08T06:25:08.416Z,101845.16
2023-05-08T06:27:37.770Z,101852.06
2023-05-08T06:30:08.293Z,101846.72
2023-05-08T06:32:36.306Z,101837.00
2023-05-08T06:35:04.267Z,101845.50
2023-05-08T06:37:32.235Z,101840.81
2023-05-08T06:40:10.982Z,101846.84
2023-05-08T06:42:41.786Z,101850.22
2023-05-08T06:45:10.419Z,101848.69
2023-05-08T06:47:38.856Z,101856.47
2023-05-08T06:50:07.854Z,101862.13
2023-05-08T06:52:35.910Z,101855.63
2023-05-08T06:55:03.817Z,101846.16
2023-05-08T06:57:31.798Z,101851.22
2023-05-08T07:00:01.093Z,101853.59
2023-05-08T07:02:29.047Z,101857.25
2023-05-08T07:04:57.030Z,101853.19
2023-05-08T07:07:25.533Z,101850.50
2023-05-08T07:09:53.427Z,101843.19
2023-05-08T07:12:21.350Z,101836.22
2023-05-08T07:14:49.241Z,101842.66
2023-05-08T07:17:18.678Z,101839.38
2023-05-08T07:19:46.552Z,101838.53
2023-05-08T07:22:14.591Z,101833.72
2023-05-08T07:24:42.537Z,101834.78
2023-05-08T07:27:10.453Z,101830.50
2023-05-08T07:29:38.408Z,101829.88
2023-05-08T07:32:08.484Z,101830.94
2023-05-08T07:34:37.842Z,101818.63
2023-05-08T07:37:05.781Z,101821.38
2023-05-08T07:39:33.745Z,101810.03
2023-05-08T07:42:01.792Z,101821.44
2023-05-08T07:44:31.676Z,101805.03
2023-05-08T07:47:03.819Z,101796.38
2023-05-08T07:49:31.742Z,101797.38
2023-05-08T07:52:01.019Z,101790.19
2023-05-08T07:54:28.932Z,101778.69
2023-05-08T07:56:56.875Z,101771.50
2023-05-08T07:59:24.788Z,101771.22
2023-05-08T08:01:52.978Z,101779.63
2023-05-08T08:04:21.274Z,101782.84
2023-05-08T08:06:49.266Z,101789.22
2023-05-08T08:09:18.542Z,101781.53
2023-05-08T08:11:46.622Z,101778.88
2023-05-08T08:14:14.542Z,101787.28
2023-05-08T08:16:42.615Z,101791.28
2023-05-08T08:19:10.735Z,101796.28
2023-05-08T08:21:43.378Z,101794.94
2023-05-08T08:24:11.480Z,101774.16
2023-05-08T08:26:40.757Z,101771.84
2023-05-08T08:29:08.896Z,101770.16
2023-05-08T08:31:36.852Z,101777.19
2023-05-08T08:34:04.992Z,101774.88
2023-05-08T08:36:33.621Z,101781.09
2023-05-08T08:39:01.859Z,101776.41
2023-05-08T08:41:29.920Z,101774.22
2023-05-08T08:44:01.999Z,101782.13
2023-05-08T08:46:30.318Z,101782.97
2023-05-08T08:48:58.305Z,101788.47
2023-05-08T08:51:28.477Z,101780.78
2023-05-08T08:54:03.645Z,101775.06
2023-05-08T08:56:31.984Z,101780.63
2023-05-08T08:59:01.467Z,101769.88
2023-05-08T09:01:30.045Z,101771.56
2023-05-08T09:03:59.445Z,101774.94
2023-05-08T09:06:28.828Z,101772.94
2023-05-08T09:08:58.041Z,101773.59
2023-05-08T09:11:26.097Z,101777.13
2023-05-08T09:13:54.030Z,101772.94
2023-05-08T09:16:23.595Z,101762.88
2023-05-08T09:18:51.836Z,101756.88
2023-05-08T09:21:19.805Z,101754.84
2023-05-08T09:24:05.970Z,101760.91
2023-05-08T09:26:34.738Z,101760.56
2023-05-08T09:29:15.467Z,101750.00
2023-05-08T09:31:45.778Z,101750.19
2023-05-08T09:34:23.863Z,101741.13
2023-05-08T09:36:51.878Z,101741.09
2023-05-08T09:39:23.333Z,101748.50
2023-05-08T09:41:58.234Z,101742.81
2023-05-08T09:44:26.190Z,101744.50
2023-05-08T09:47:10.393Z,101740.13
2023-05-08T09:49:39.887Z,101743.81
2023-05-08T09:52:08.460Z,101739.28
2023-05-08T09:54:37.536Z,101736.44
2023-05-08T09:57:13.249Z,101732.09
2023-05-08T09:59:42.655Z,101731.56
2023-05-08T10:02:16.351Z,101734.75
2023-05-08T10:04:44.850Z,101743.13
2023-05-08T10:07:12.841Z,101746.97
2023-05-08T10:09:50.453Z,101738.78
2023-05-08T10:12:19.341Z,101754.22
2023-05-08T10:14:47.431Z,101757.06
2023-05-08T10:17:16.897Z,101744.13
2023-05-08T10:19:45.999Z,101734.41
2023-05-08T10:22:14.042Z,101725.31
2023-05-08T10:24:42.690Z,101726.16
2023-05-08T10:27:13.576Z,101738.75
2023-05-08T10:29:43.783Z,101744.13
2023-05-08T10:32:11.792Z,101737.78
2023-05-08T10:34:42.192Z,101737.28
2023-05-08T10:37:10.771Z,101731.72
2023-05-08T10:39:38.788Z,101738.75
2023-05-08T10:42:06.927Z,101745.41
2023-05-08T10:44:34.942Z,101734.81
2023-05-08T10:47:05.542Z,101741.53
2023-05-08T10:49:36.286Z,101747.72
2023-05-08T10:52:18.019Z,101740.28
2023-05-08T10:55:10.963Z,101735.28
2023-05-08T10:57:38.956Z,101725.25
2023-05-08T11:00:08.619Z,101716.50
2023-05-08T11:02:38.483Z,101703.38
2023-05-08T11:05:16.420Z,101713.44
2023-05-08T11:07:56.180Z,101709.19
2023-05-08T11:10:24.275Z,101708.56
2023-05-08T11:12:52.221Z,101710.69
2023-05-08T11:15:24.747Z,101714.38
2023-05-08T11:17:55.442Z,101716.75
2023-05-08T11:20:24.609Z,101720.28
2023-05-08T11:22:52.690Z,101720.75
2023-05-08T11:25:22.511Z,101718.44
2023-05-08T11:28:14.012Z,101719.78
2023-05-08T11:30:42.202Z,101725.00
2023-05-08T11:33:16.728Z,101724.19
2023-05-08T11:35:50.033Z,101720.19
2023-05-08T11:38:28.147Z,101720.91
2023-05-08T11:40:59.290Z,101733.38
2023-05-08T11:43:28.448Z,101722.78
2023-05-08T11:45:56.422Z,101713.88
2023-05-08T11:48:24.357Z,101719.25
2023-05-08T11:50:52.434Z,101718.09
2023-05-08T11:53:20.468Z,101728.84
2023-05-08T11:55:49.257Z,101718.41
2023-05-08T11:58:18.552Z,101722.13
2023-05-08T12:00:47.424Z,101721.28
2023-05-08T12:03:15.867Z,101707.19
2023-05-08T12:05:44.116Z,101709.53
2023-05-08T12:08:12.855Z,101710.75
2023-05-08T12:10:41.624Z,101703.19
2023-05-08T12:13:29.443Z,101706.91
2023-05-08T12:15:58.314Z,101711.59
2023-05-08T12:18:27.696Z,101710.06
2023-05-08T12:20:58.381Z,101709.91
2023-05-08T12:23:26.690Z,101700.38
2023-05-08T12:25:55.511Z,101693.81
2023-05-08T12:28:24.004Z,101697.16
2023-05-08T12:30:53.823Z,101693.81
2023-05-08T12:33:22.111Z,101697.53
2023-05-08T12:35:50.286Z,101701.91
2023-05-08T12:38:18.581Z,101697.84
2023-05-08T12:40:49.119Z,101707.94
2023-05-08T12:43:17.343Z,101712.63
2023-05-08T12:45:45.438Z,101709.41
2023-05-08T12:48:15.773Z,101710.28
2023-05-08T12:50:47.245Z,101717.63
2023-05-08T12:53:16.638Z,101703.91
2023-05-08T12:55:52.770Z,101711.41
2023-05-08T12:58:20.907Z,101714.94
2023-05-08T13:00:49.780Z,101720.97
2023-05-08T13:03:25.721Z,101726.50
2023-05-08T13:05:54.364Z,101725.81
2023-05-08T13:08:22.339Z,101713.94
2023-05-08T13:10:50.974Z,101718.47
2023-05-08T13:13:19.798Z,101723.66
2023-05-08T13:15:48.148Z,101716.63
2023-05-08T13:18:17.032Z,101717.09
2023-05-08T13:20:46.589Z,101719.78
2023-05-08T13:23:14.628Z,101711.72
2023-05-08T13:25:42.767Z,101712.75
2023-05-08T13:28:12.048Z,101715.22
2023-05-08T13:30:40.148Z,101714.50
2023-05-08T13:33:08.247Z,101717.84
2023-05-08T13:35:36.231Z,101716.84
2023-05-08T13:38:06.151Z,101706.13
2023-05-08T13:40:34.406Z,101713.66
2023-05-08T13:43:02.394Z,101718.00
2023-05-08T13:45:30.797Z,101702.75
2023-05-08T13:48:00.409Z,101711.13
2023-05-08T13:50:28.876Z,101702.59
2023-05-08T13:52:56.809Z,101702.44
2023-05-08T13:55:26.325Z,101705.28
2023-05-08T13:57:54.429Z,101703.41
2023-05-08T14:00:22.503Z,101713.47
2023-05-08T14:02:53.024Z,101711.13
2023-05-08T14:05:21.576Z,101705.78
2023-05-08T14:07:49.478Z,101721.53
2023-05-08T14:10:18.109Z,101708.97
2023-05-08T14:12:47.418Z,101700.28
2023-05-08T14:15:18.259Z,101695.75
2023-05-08T14:17:46.272Z,101701.81
2023-05-08T14:20:14.235Z,101697.44
2023-05-08T14:22:42.232Z,101705.13
2023-05-08T14:25:11.111Z,101717.88
2023-05-08T14:27:39.523Z,101713.66
2023-05-08T14:30:11.988Z,101698.75
2023-05-08T14:32:46.007Z,101709.47
2023-05-08T14:35:15.118Z,101699.75
2023-05-08T14:37:46.544Z,101701.44
2023-05-08T14:40:15.118Z,101697.75
2023-05-08T14:42:43.495Z,101690.41
2023-05-08T14:45:13.683Z,101697.09
2023-05-08T14:47:42.179Z,101695.09
2023-05-08T14:50:11.029Z,101688.75
2023-05-08T14:52:39.186Z,101690.59
2023-05-08T14:55:08.578Z,101692.59
2023-05-08T14:57:37.136Z,101689.75
2023-05-08T15:00:06.149Z,101690.06
2023-05-08T15:02:38.418Z,101684.38
2023-05-08T15:05:10.945Z,101690.41
2023-05-08T15:07:45.407Z,101687.03
2023-05-08T15:10:13.686Z,101684.19
2023-05-08T15:12:41.822Z,101679.34
2023-05-08T15:15:10.105Z,101690.19
2023-05-08T15:17:41.543Z,101692.50
2023-05-08T15:20:10.435Z,101692.31
2023-05-08T15:22:38.380Z,101688.13
2023-05-08T15:25:07.821Z,101687.63
2023-05-08T15:27:35.808Z,101688.94
2023-05-08T15:30:03.847Z,101690.06
2023-05-08T15:32:31.892Z,101690.56
2023-05-08T15:35:01.236Z,101685.88
2023-05-08T15:37:29.267Z,101681.16
2023-05-08T15:39:57.243Z,101679.47
2023-05-08T15:42:25.258Z,101683.78
2023-05-08T15:44:57.528Z,101685.78
2023-05-08T15:47:27.226Z,101683.03
2023-05-08T15:49:55.341Z,101678.00
2023-05-08T15:52:24.604Z,101684.03
2023-05-08T15:54:52.899Z,101681.53
2023-05-08T15:57:21.138Z,101680.28
2023-05-08T15:59:49.052Z,101686.28
2023-05-08T16:02:17.091Z,101686.63
2023-05-08T16:04:45.039Z,101669.19
2023-05-08T16:07:13.249Z,101678.38
2023-05-08T16:09:43.108Z,101681.06
2023-05-08T16:12:11.039Z,101682.72
2023-05-08T16:14:39.432Z,101688.91
2023-05-08T16:17:08.574Z,101692.44
2023-05-08T16:19:38.769Z,101692.22
2023-05-08T16:22:06.967Z,101685.88
2023-05-08T16:24:34.868Z,101695.03
2023-05-08T16:27:04.429Z,101698.19
2023-05-08T16:29:32.297Z,101699.19
2023-05-08T16:32:00.259Z,101699.53
2023-05-08T16:34:28.317Z,101698.13
2023-05-08T16:36:56.537Z,101703.50
2023-05-08T16:39:24.479Z,101698.13
2023-05-08T16:41:52.357Z,101684.63
2023-05-08T16:44:21.806Z,101683.16
2023-05-08T16:46:49.735Z,101687.84
2023-05-08T16:49:17.935Z,101677.53
2023-05-08T16:51:45.847Z,101669.88
2023-05-08T16:54:13.770Z,101657.19
2023-05-08T16:56:41.715Z,101654.19
2023-05-08T16:59:09.757Z,101652.19
2023-05-08T17:01:39.045Z,101643.16
2023-05-08T17:04:07.250Z,101645.00
2023-05-08T17:06:35.327Z,101638.66
2023-05-08T17:09:03.320Z,101631.63
2023-05-08T17:11:31.201Z,101636.97
2023-05-08T17:13:59.267Z,101625.59
2023-05-08T17:16:27.274Z,101613.69
2023-05-08T17:18:56.860Z,101613.69
2023-05-08T17:21:24.776Z,101596.66
2023-05-08T17:23:52.817Z,101595.84
2023-05-08T17:26:21.809Z,101591.00
2023-05-08T17:28:49.746Z,101593.72
2023-05-08T17:31:19.241Z,101597.59
2023-05-08T17:33:47.369Z,101594.78
2023-05-08T17:36:18.146Z,101595.53
2023-05-08T17:38:47.370Z,101593.03
2023-05-08T17:41:15.303Z,101596.03
2023-05-08T17:43:43.374Z,101585.63
2023-05-08T17:46:11.622Z,101576.97
2023-05-08T17:48:39.776Z,101578.31
2023-05-08T17:51:07.699Z,101584.00
2023-05-08T17:53:37.132Z,101586.66
2023-05-08T17:56:05.385Z,101577.03
2023-05-08T17:58:33.447Z,101564.66
2023-05-08T18:01:02.046Z,101568.38
2023-05-08T18:03:30.438Z,101565.38
2023-05-08T18:05:58.633Z,101565.88
2023-05-08T18:08:26.605Z,101576.78
2023-05-08T18:10:56.201Z,101573.72
2023-05-08T18:13:24.516Z,101584.78
2023-05-08T18:15:52.689Z,101573.06
2023-05-08T18:18:20.689Z,101565.34
2023-05-08T18:20:48.642Z,101572.69
2023-05-08T18:23:16.634Z,101567.03
2023-05-08T18:25:44.656Z,101567.03
2023-05-08T18:28:14.028Z,101580.25
2023-05-08T18:30:42.099Z,101575.75
2023-05-08T18:33:10.116Z,101571.56
2023-05-08T18:35:38.161Z,101568.41
2023-05-08T18:38:06.062Z,101574.44
2023-05-08T18:40:34.072Z,101579.78
2023-05-08T18:43:02.028Z,101578.09
2023-05-08T18:45:31.308Z,101570.75
2023-05-08T18:47:59.333Z,101572.78
2023-05-08T18:50:27.229Z,101570.78
2023-05-08T18:52:55.186Z,101574.09
2023-05-08T18:55:23.103Z,101575.47
2023-05-08T18:57:51.118Z,101560.09
2023-05-08T19:00:19.833Z,101565.25
2023-05-08T19:02:49.205Z,101565.94
2023-05-08T19:05:17.880Z,101567.09
2023-05-08T19:07:46.340Z,101563.09
2023-05-08T19:10:14.565Z,101568.13
2023-05-08T19:12:42.976Z,101568.28
2023-05-08T19:15:14.051Z,101574.16
2023-05-08T19:17:42.383Z,101577.50
2023-05-08T19:20:13.684Z,101569.94
2023-05-08T19:22:41.809Z,101575.66
2023-05-08T19:25:09.885Z,101571.81
2023-05-08T19:27:37.866Z,101568.09
2023-05-08T19:30:07.018Z,101578.16
2023-05-08T19:32:35.108Z,101583.53
2023-05-08T19:35:03.635Z,101574.66
2023-05-08T19:37:33.099Z,101576.47
2023-05-08T19:40:01.036Z,101573.97
2023-05-08T19:42:28.925Z,101575.13
2023-05-08T19:44:57.059Z,101570.44
2023-05-08T19:47:24.966Z,101575.50
2023-05-08T19:49:54.010Z,101576.81
2023-05-08T19:52:21.942Z,101571.97
2023-05-08T19:54:51.439Z,101580.50
2023-05-08T19:57:19.295Z,101582.19
2023-05-08T19:59:47.185Z,101576.84
2023-05-08T20:02:15.275Z,101574.16
2023-05-08T20:05:10.430Z,101575.84
2023-05-08T20:07:31.243Z,101585.72
2023-05-08T20:10:00.492Z,101593.91
2023-05-08T20:12:28.560Z,101583.69
2023-05-08T20:14:56.443Z,101580.19
2023-05-08T20:17:24.564Z,101576.50
2023-05-08T20:19:52.544Z,101574.47
2023-05-08T20:22:20.601Z,101572.81
2023-05-08T20:24:48.599Z,101588.06
2023-05-08T20:27:17.845Z,101595.25
2023-05-08T20:29:46.718Z,101589.75
2023-05-08T20:32:16.427Z,101604.97
2023-05-08T20:34:45.148Z,101602.28
2023-05-08T20:37:13.049Z,101605.28
2023-05-08T20:39:41.067Z,101601.94
2023-05-08T20:42:08.965Z,101599.25
2023-05-08T20:44:38.606Z,101594.25
2023-05-08T20:47:06.520Z,101597.91
2023-05-08T20:49:34.494Z,101589.34
2023-05-08T20:52:02.391Z,101597.59
2023-05-08T20:54:30.419Z,101593.53
2023-05-08T20:56:58.444Z,101589.19
2023-05-08T20:59:26.497Z,101602.41
2023-05-08T21:01:55.802Z,101589.88
2023-05-08T21:04:23.857Z,101589.53
2023-05-08T21:06:52.405Z,101589.34
2023-05-08T21:09:20.398Z,101582.00
2023-05-08T21:11:48.509Z,101583.84
2023-05-08T21:14:16.420Z,101582.84
2023-05-08T21:16:44.640Z,101587.88
2023-05-08T21:19:17.369Z,101590.88
2023-05-08T21:21:45.499Z,101602.41
2023-05-08T21:24:13.362Z,101604.22
2023-05-08T21:26:41.311Z,101597.66
2023-05-08T21:29:10.779Z,101600.13
2023-05-08T21:31:39.116Z,101604.06
2023-05-08T21:34:07.709Z,101595.47
2023-05-08T21:36:37.059Z,101603.00
2023-05-08T21:39:05.063Z,101598.28
2023-05-08T21:41:33.132Z,101603.44
2023-05-08T21:44:01.124Z,101602.06
2023-05-08T21:46:29.205Z,101590.50
2023-05-08T21:48:57.273Z,101592.53
2023-05-08T21:51:25.177Z,101594.53
2023-05-08T21:53:54.648Z,101586.50
2023-05-08T21:56:22.757Z,101581.00
2023-05-08T21:58:51.132Z,101579.50
2023-05-08T22:01:19.227Z,101592.56
2023-05-08T22:03:47.485Z,101583.38
2023-05-08T22:06:15.608Z,101573.50
2023-05-08T22:08:43.556Z,101580.84
2023-05-08T22:11:12.851Z,101581.69
2023-05-08T22:13:40.761Z,101577.53
2023-05-08T22:16:09.243Z,101578.66
2023-05-08T22:18:37.376Z,101581.50
2023-05-08T22:21:05.316Z,101573.81
2023-05-08T22:23:34.401Z,101568.28
2023-05-08T22:26:02.922Z,101568.63
2023-05-08T22:28:32.208Z,101573.59
2023-05-08T22:31:00.486Z,101586.44
2023-05-08T22:33:32.239Z,101579.75
2023-05-08T22:36:00.252Z,101569.66
2023-05-08T22:38:28.126Z,101573.44
2023-05-08T22:40:57.429Z,101563.38
2023-05-08T22:43:25.634Z,101570.22
2023-05-08T22:45:54.909Z,101568.81
2023-05-08T22:48:22.879Z,101574.16
2023-05-08T22:50:50.905Z,101568.53
2023-05-08T22:53:18.844Z,101572.88
2023-05-08T22:55:46.820Z,101567.91
2023-05-08T22:58:14.759Z,101560.78
2023-05-08T23:00:42.700Z,101558.97
2023-05-08T23:03:11.947Z,101563.69
2023-05-08T23:05:39.899Z,101557.72
2023-05-08T23:08:07.884Z,101550.03
2023-05-08T23:10:35.829Z,101550.25
2023-05-08T23:13:03.995Z,101550.25
2023-05-08T23:15:31.887Z,101557.91
2023-05-08T23:17:59.875Z,101550.34
2023-05-08T23:20:29.165Z,101557.56
2023-05-08T23:22:57.176Z,101559.22
2023-05-08T23:25:25.418Z,101550.34
2023-05-08T23:27:53.290Z,101553.03
2023-05-08T23:30:21.524Z,101546.31
2023-05-08T23:32:49.387Z,101551.97
2023-05-08T23:35:17.523Z,101547.28
2023-05-08T23:37:46.760Z,101551.75
2023-05-08T23:40:14.898Z,101557.72
2023-05-08T23:42:42.769Z,101560.38
2023-05-08T23:45:12.161Z,101557.06
2023-05-08T23:47:40.315Z,101555.22
2023-05-08T23:50:08.985Z,101551.84
2023-05-08T23:52:36.920Z,101559.03
2023-05-08T23:55:07.307Z,101553.84
2023-05-08T23:57:35.333Z,101545.13
